^^
Garrymore Weather Station Historical Data
Daily Summary for October 23, 2020 Units:  Metric    English   Both
Daily Weekly Monthly Yearly Custom
  High: Low: Average:
Temperature: 8 °C 7 °C 7.6 °C
Dew Point: 4 °C 2 °C 3 °C
Humidity: 76% 71% 72%
Wind Speed: 24km/h 10km/h 17.5km/h
Wind Gust: 40km/h - -
Wind- - SSE
Pressure: 1007.89 hPa 1005.38 hPa -
Precipitation: 0 mm    
Historical Graphs
 
 
Tabular Data for October 23, 2020
Time Temperature Dew Point Pressure Wind Wind Speed Wind Gust Humidity Rainfall Rate (Hourly) solar
00:00 7 °C 2 °C 1007.89 hPa SSE 10 km/h 14 km/h 73% 0 mm 0 W/m2
00:05 7 °C 3 °C 1007.42 hPa SSE 11 km/h 21 km/h 73% 0 mm 0 W/m2
00:10 7 °C 3 °C 1007.38 hPa SE 10 km/h 16 km/h 74% 0 mm 0 W/m2
00:15 7 °C 3 °C 1007.21 hPa SSE 13 km/h 23 km/h 73% 0 mm 0 W/m2
00:20 7 °C 3 °C 1007.21 hPa S 13 km/h 26 km/h 73% 0 mm 0 W/m2
00:25 7 °C 3 °C 1007.08 hPa S 19 km/h 26 km/h 73% 0 mm 0 W/m2
00:30 7 °C 3 °C 1007.01 hPa S 16 km/h 26 km/h 73% 0 mm 0 W/m2
00:35 7 °C 3 °C 1006.81 hPa SSE 13 km/h 27 km/h 72% 0 mm 0 W/m2
00:40 7 °C 3 °C 1006.91 hPa SSE 13 km/h 27 km/h 72% 0 mm 0 W/m2
00:45 7 °C 3 °C 1006.54 hPa SSE 14 km/h 26 km/h 72% 0 mm 0 W/m2
00:50 7 °C 3 °C 1006.71 hPa SSE 19 km/h 32 km/h 72% 0 mm 0 W/m2
00:55 7 °C 3 °C 1006.6 hPa SSE 23 km/h 32 km/h 72% 0 mm 0 W/m2
01:00 8 °C 3 °C 1006.71 hPa SSE 13 km/h 27 km/h 72% 0 mm 0 W/m2
01:05 8 °C 3 °C 1006.6 hPa S 16 km/h 26 km/h 72% 0 mm 0 W/m2
01:10 8 °C 3 °C 1006.6 hPa S 13 km/h 26 km/h 71% 0 mm 0 W/m2
01:15 8 °C 3 °C 1006.3 hPa S 13 km/h 26 km/h 71% 0 mm 0 W/m2
01:20 8 °C 3 °C 1006.03 hPa S 23 km/h 34 km/h 71% 0 mm 0 W/m2
01:25 8 °C 3 °C 1005.89 hPa S 24 km/h 37 km/h 71% 0 mm 0 W/m2
01:30 8 °C 3 °C 1005.89 hPa S 24 km/h 40 km/h 71% 0 mm 0 W/m2
01:35 8 °C 3 °C 1005.99 hPa S 21 km/h 34 km/h 71% 0 mm 0 W/m2
01:40 8 °C 3 °C 1005.89 hPa S 23 km/h 37 km/h 71% 0 mm 0 W/m2
01:45 8 °C 3 °C 1005.99 hPa S 21 km/h 35 km/h 71% 0 mm 0 W/m2
01:50 8 °C 3 °C 1005.72 hPa SSE 21 km/h 37 km/h 71% 0 mm 0 W/m2
01:55 8 °C 3 °C 1005.89 hPa SSE 19 km/h 34 km/h 72% 0 mm 0 W/m2
02:00 8 °C 3 °C 1005.93 hPa SSE 19 km/h 27 km/h 72% 0 mm 0 W/m2
02:05 8 °C 3 °C 1005.83 hPa SSE 14 km/h 27 km/h 72% 0 mm 0 W/m2
02:10 8 °C 3 °C 1005.69 hPa SSE 16 km/h 32 km/h 73% 0 mm 0 W/m2
02:15 8 °C 3 °C 1005.79 hPa SSE 23 km/h 34 km/h 73% 0 mm 0 W/m2
02:20 8 °C 3 °C 1005.79 hPa SSE 21 km/h 34 km/h 74% 0 mm 0 W/m2
02:25 8 °C 3 °C 1005.38 hPa S 21 km/h 37 km/h 75% 0 mm 0 W/m2
02:30 8 °C 4 °C 1005.49 hPa S 23 km/h 34 km/h 76% 0 mm 0 W/m2
Garrymore Weather Station, Geashill, Tullamore, Offaly, Ireland
Compliments of Weather Underground - 2 mb